createdAt,value
2017-08-24T00:00:38.129Z,11.13
2017-08-24T00:05:41.315Z,12.60
2017-08-24T00:10:44.505Z,11.80
2017-08-24T00:15:47.722Z,11.83
2017-08-24T00:20:50.918Z,11.47
2017-08-24T00:25:54.118Z,13.00
2017-08-24T00:30:57.292Z,12.17
2017-08-24T00:36:00.495Z,11.40
2017-08-24T00:41:03.668Z,12.80
2017-08-24T00:46:06.837Z,14.50
2017-08-24T00:51:10.106Z,12.43
2017-08-24T00:56:13.421Z,13.63
2017-08-24T01:01:16.615Z,13.57
2017-08-24T01:06:19.799Z,14.90
2017-08-24T01:11:22.992Z,13.50
2017-08-24T01:16:26.196Z,13.27
2017-08-24T01:21:29.367Z,12.70
2017-08-24T01:26:32.715Z,12.57
2017-08-24T01:31:35.911Z,13.47
2017-08-24T01:36:39.092Z,14.60
2017-08-24T01:41:42.285Z,15.93
2017-08-24T01:46:45.453Z,14.23
2017-08-24T01:51:48.646Z,14.03
2017-08-24T01:56:51.848Z,13.10
2017-08-24T02:01:55.039Z,13.70
2017-08-24T02:06:58.319Z,13.43
2017-08-24T02:12:01.486Z,13.77
2017-08-24T02:17:04.685Z,12.87
2017-08-24T02:22:07.898Z,13.93
2017-08-24T02:27:11.093Z,13.73
2017-08-24T02:32:14.294Z,13.60
2017-08-24T02:37:17.474Z,13.93
2017-08-24T02:42:20.661Z,14.40
2017-08-24T02:47:23.856Z,13.90
2017-08-24T02:52:27.056Z,14.83
2017-08-24T02:57:30.242Z,18.17
2017-08-24T03:02:33.463Z,16.30
2017-08-24T03:07:36.637Z,16.00
2017-08-24T03:12:39.853Z,15.57
2017-08-24T03:17:43.215Z,15.77
2017-08-24T03:22:46.394Z,15.13
2017-08-24T03:27:49.630Z,15.07
2017-08-24T03:32:52.841Z,14.93
2017-08-24T03:37:56.050Z,13.90
2017-08-24T03:42:59.245Z,14.00
2017-08-24T03:48:02.461Z,14.60
2017-08-24T03:53:05.654Z,15.23
2017-08-24T03:58:08.840Z,15.40
2017-08-24T04:03:12.084Z,17.70
2017-08-24T04:08:15.281Z,16.40
2017-08-24T04:13:18.478Z,15.65
2017-08-24T04:18:21.677Z,16.00
2017-08-24T04:23:24.948Z,14.60
2017-08-24T04:28:28.133Z,14.60
2017-08-24T04:33:31.423Z,14.80
2017-08-24T04:38:34.750Z,14.10
2017-08-24T04:43:37.942Z,14.53
2017-08-24T04:48:41.130Z,14.90
2017-08-24T04:53:44.331Z,14.53
2017-08-24T04:58:47.499Z,15.23
2017-08-24T05:03:50.700Z,16.97
2017-08-24T05:08:53.886Z,13.80
2017-08-24T05:13:57.053Z,14.07
2017-08-24T05:19:00.273Z,19.27
2017-08-24T05:24:03.490Z,17.30
2017-08-24T05:29:06.686Z,15.43
2017-08-24T05:34:09.870Z,15.67
2017-08-24T05:39:13.086Z,15.83
2017-08-24T05:44:16.275Z,16.57
2017-08-24T05:49:19.460Z,17.43
2017-08-24T05:54:22.627Z,15.37
2017-08-24T05:59:25.824Z,15.17
2017-08-24T06:04:29.021Z,14.83
2017-08-24T06:09:32.218Z,14.93
2017-08-24T06:14:35.553Z,17.47
2017-08-24T06:19:38.713Z,14.60
2017-08-24T06:24:41.907Z,16.03
2017-08-24T06:29:45.153Z,16.63
2017-08-24T06:34:48.442Z,15.90
2017-08-24T06:39:51.630Z,16.73
2017-08-24T06:44:54.855Z,15.40
2017-08-24T06:49:58.028Z,19.83
2017-08-24T06:55:01.207Z,16.00
2017-08-24T07:00:04.406Z,14.57
2017-08-24T07:05:07.597Z,16.27
2017-08-24T07:10:10.786Z,17.20
2017-08-24T07:15:13.966Z,16.53
2017-08-24T07:20:17.174Z,15.50
2017-08-24T07:25:20.364Z,16.40
2017-08-24T07:30:23.588Z,15.80
2017-08-24T07:35:26.801Z,14.00
2017-08-24T07:40:29.988Z,14.10
2017-08-24T07:45:33.200Z,14.10
2017-08-24T07:50:36.400Z,13.97
2017-08-24T07:55:39.624Z,11.07
2017-08-24T08:00:42.912Z,10.47
2017-08-24T08:05:46.411Z,8.30
2017-08-24T08:10:49.584Z,7.83
2017-08-24T08:15:52.864Z,6.93
2017-08-24T08:20:56.075Z,5.80
2017-08-24T08:25:59.272Z,5.80
2017-08-24T08:31:02.461Z,4.70
2017-08-24T08:36:05.663Z,5.17
2017-08-24T08:41:08.845Z,3.60
2017-08-24T08:46:12.021Z,3.40
2017-08-24T08:51:15.208Z,3.30
2017-08-24T08:56:18.399Z,2.57
2017-08-24T09:01:21.592Z,2.90
2017-08-24T09:06:24.806Z,2.83
2017-08-24T09:11:28.035Z,3.37
2017-08-24T09:16:31.232Z,4.23
2017-08-24T09:21:34.446Z,3.77
2017-08-24T09:26:37.647Z,3.83
2017-08-24T09:31:40.834Z,3.50
2017-08-24T09:36:44.021Z,3.57
2017-08-24T09:41:47.202Z,3.90
2017-08-24T09:46:50.386Z,4.07
2017-08-24T09:51:53.577Z,4.03
2017-08-24T09:56:56.764Z,3.80
2017-08-24T10:01:59.942Z,4.13
2017-08-24T10:07:03.122Z,4.10
2017-08-24T10:12:06.303Z,3.60
2017-08-24T10:17:09.528Z,5.03
2017-08-24T10:22:12.722Z,3.90
2017-08-24T10:27:15.915Z,4.00
2017-08-24T10:32:19.217Z,4.10
2017-08-24T10:37:22.421Z,4.20
2017-08-24T10:42:25.627Z,3.80
2017-08-24T10:47:28.829Z,3.80
2017-08-24T10:52:31.989Z,4.10
2017-08-24T10:57:35.197Z,4.57
2017-08-24T11:02:38.390Z,4.53
2017-08-24T11:07:41.584Z,4.43
2017-08-24T11:12:44.777Z,4.17
2017-08-24T11:17:47.968Z,4.00
2017-08-24T11:22:51.178Z,4.43
2017-08-24T11:27:54.375Z,3.50
2017-08-24T11:32:57.612Z,3.67
2017-08-24T11:38:00.789Z,3.30
2017-08-24T11:43:03.970Z,3.57
2017-08-24T11:48:07.219Z,3.10
2017-08-24T11:53:10.415Z,3.83
2017-08-24T11:58:13.603Z,4.00
2017-08-24T12:03:16.781Z,3.20
2017-08-24T12:08:19.986Z,2.80
2017-08-24T12:13:23.190Z,2.67
2017-08-24T12:18:26.393Z,2.60
2017-08-24T12:23:29.545Z,2.40
2017-08-24T12:28:32.755Z,3.30
2017-08-24T12:33:35.957Z,2.97
2017-08-24T12:38:39.170Z,2.57
2017-08-24T12:43:42.370Z,3.30
2017-08-24T12:48:45.622Z,2.83
2017-08-24T12:53:48.808Z,3.20
2017-08-24T12:58:52.018Z,3.00
2017-08-24T13:03:55.222Z,3.00
2017-08-24T13:08:58.438Z,2.70
2017-08-24T13:14:01.651Z,2.70
2017-08-24T13:19:04.811Z,2.70
2017-08-24T13:24:07.994Z,3.03
2017-08-24T13:29:11.188Z,4.10
2017-08-24T13:34:14.378Z,2.87
2017-08-24T13:39:17.554Z,2.40
2017-08-24T13:44:20.798Z,2.47
2017-08-24T13:49:23.987Z,2.67
2017-08-24T13:54:27.200Z,2.20
2017-08-24T13:59:30.418Z,1.97
2017-08-24T14:04:33.633Z,1.80
2017-08-24T14:09:36.823Z,2.10
2017-08-24T14:14:40.177Z,1.73
2017-08-24T14:19:43.388Z,2.10
2017-08-24T14:24:46.592Z,1.93
2017-08-24T14:29:49.790Z,1.80
2017-08-24T14:34:52.971Z,2.10
2017-08-24T14:39:56.322Z,1.97
2017-08-24T14:44:59.525Z,2.10
2017-08-24T14:50:02.730Z,2.00
2017-08-24T14:55:05.949Z,1.47
2017-08-24T15:00:09.154Z,1.70
2017-08-24T15:05:12.355Z,1.93
2017-08-24T15:10:15.513Z,1.20
2017-08-24T15:15:18.720Z,2.00
2017-08-24T15:20:21.955Z,1.73
2017-08-24T15:25:25.150Z,1.50
2017-08-24T15:30:28.333Z,1.67
2017-08-24T15:35:31.547Z,1.40
2017-08-24T15:40:34.710Z,1.57
2017-08-24T15:45:37.909Z,1.47
2017-08-24T15:50:41.121Z,2.10
2017-08-24T15:55:44.334Z,1.90
2017-08-24T16:00:47.479Z,1.70
2017-08-24T16:05:50.702Z,2.40
2017-08-24T16:10:53.889Z,2.40
2017-08-24T16:15:57.104Z,2.00
2017-08-24T16:21:00.321Z,2.17
2017-08-24T16:26:03.531Z,2.07
2017-08-24T16:31:06.710Z,2.10
2017-08-24T16:36:10.029Z,1.70
2017-08-24T16:41:13.223Z,2.07
2017-08-24T16:46:16.455Z,1.87
2017-08-24T16:51:19.664Z,2.43
2017-08-24T16:56:23.022Z,2.17
2017-08-24T17:01:26.306Z,2.17
2017-08-24T17:06:29.517Z,2.20
2017-08-24T17:11:32.700Z,1.97
2017-08-24T17:16:35.910Z,2.30
2017-08-24T17:21:39.109Z,2.40
2017-08-24T17:26:42.315Z,2.50
2017-08-24T17:31:45.537Z,2.30
2017-08-24T17:36:48.981Z,2.50
2017-08-24T17:41:53.304Z,2.40
2017-08-24T17:46:56.489Z,2.40
2017-08-24T17:52:00.590Z,2.60
2017-08-24T17:57:03.792Z,2.90
2017-08-24T18:02:07.168Z,2.63
2017-08-24T18:07:10.380Z,3.87
2017-08-24T18:12:13.681Z,3.33
2017-08-24T18:17:16.889Z,3.13
2017-08-24T18:22:20.118Z,3.60
2017-08-24T18:27:23.366Z,3.20
2017-08-24T18:32:26.556Z,4.33
2017-08-24T18:37:29.790Z,3.90
2017-08-24T18:42:33.017Z,3.50
2017-08-24T18:47:36.283Z,2.90
2017-08-24T18:52:39.518Z,3.80
2017-08-24T18:57:42.697Z,3.30
2017-08-24T19:02:46.001Z,3.77
2017-08-24T19:07:49.181Z,3.10
2017-08-24T19:12:52.429Z,3.00
2017-08-24T19:17:55.826Z,3.33
2017-08-24T19:22:59.044Z,3.53
2017-08-24T19:28:02.262Z,3.87
2017-08-24T19:33:05.553Z,3.70
2017-08-24T19:38:08.860Z,3.90
2017-08-24T19:43:12.019Z,4.00
2017-08-24T19:48:15.210Z,2.97
2017-08-24T19:53:18.389Z,3.67
2017-08-24T19:58:21.538Z,4.40
2017-08-24T20:03:24.696Z,4.33
2017-08-24T20:08:28.067Z,4.67
2017-08-24T20:13:31.287Z,4.40
2017-08-24T20:18:34.475Z,4.43
2017-08-24T20:23:37.631Z,4.70
2017-08-24T20:28:40.865Z,3.70
2017-08-24T20:33:44.088Z,3.63
2017-08-24T20:38:47.288Z,4.90
2017-08-24T20:43:50.484Z,5.37
2017-08-24T20:48:53.695Z,4.67
2017-08-24T20:53:56.898Z,11.27
2017-08-24T20:59:00.239Z,4.93
2017-08-24T21:04:03.582Z,4.20
2017-08-24T21:09:06.788Z,4.43
2017-08-24T21:14:09.967Z,4.00
2017-08-24T21:19:13.166Z,3.60
2017-08-24T21:24:16.362Z,4.43
2017-08-24T21:29:19.572Z,3.73
2017-08-24T21:34:22.786Z,3.80
2017-08-24T21:39:25.957Z,4.40
2017-08-24T21:44:29.159Z,4.70
2017-08-24T21:49:32.340Z,4.30
2017-08-24T21:54:35.528Z,4.03
2017-08-24T21:59:38.702Z,4.30
2017-08-24T22:04:41.887Z,4.10
2017-08-24T22:09:45.094Z,4.30
2017-08-24T22:14:48.282Z,4.90
2017-08-24T22:19:51.489Z,3.73
2017-08-24T22:24:54.672Z,4.50
2017-08-24T22:29:57.896Z,4.43
2017-08-24T22:35:01.070Z,4.93
2017-08-24T22:40:04.239Z,4.10
2017-08-24T22:45:07.422Z,4.40
2017-08-24T22:50:10.597Z,5.20
2017-08-24T22:55:19.506Z,4.50
2017-08-24T23:00:28.273Z,3.23
2017-08-24T23:05:31.461Z,4.20
2017-08-24T23:10:34.655Z,5.00
2017-08-24T23:15:37.835Z,4.60
2017-08-24T23:20:40.986Z,4.20
2017-08-24T23:25:44.243Z,4.53
2017-08-24T23:30:47.413Z,4.67
2017-08-24T23:35:50.594Z,4.20
2017-08-24T23:40:53.789Z,4.43
2017-08-24T23:45:57.012Z,4.07
2017-08-24T23:51:00.237Z,4.13
2017-08-24T23:56:03.437Z,4.85
